Time;durP1;ratioP1;P1;durP2;ratioP2;P2;SDS_P1;SDS_P2;PMS_P1;PMS_P2;Temp;Humidity;BMP_temperature;BMP_pressure;BME280_temperature;BME280_humidity;BME280_pressure;Samples;Min_cycle;Max_cycle;Signal;HPM_P1;HPM_P2
2021/04/18 00:01:20;;;;;;;30.48;16.95;;;77.50;2227.20;;;;;;5093801;28;20030;-70
2021/04/18 00:03:46;;;;;;;24.73;14.10;;;77.40;2227.20;;;;;;5077345;28;20035;-70
2021/04/18 00:06:12;;;;;;;23.38;13.60;;;77.40;2227.20;;;;;;5097633;28;20028;-70
2021/04/18 00:08:38;;;;;;;24.92;13.80;;;77.30;2227.20;;;;;;5097324;28;20345;-71
2021/04/18 00:11:03;;;;;;;23.90;14.18;;;77.30;2227.20;;;;;;5097796;28;20035;-69
2021/04/18 00:13:29;;;;;;;25.70;15.18;;;77.20;2227.20;;;;;;5097945;28;20032;-70
2021/04/18 00:15:55;;;;;;;31.42;16.13;;;77.20;2227.20;;;;;;5097284;28;20066;-70
2021/04/18 00:18:21;;;;;;;33.53;18.40;;;77.20;2227.20;;;;;;5098091;28;20092;-70
2021/04/18 00:20:47;;;;;;;31.25;18.63;;;77.20;2227.20;;;;;;5097121;28;20067;-70
2021/04/18 00:23:12;;;;;;;31.05;17.67;;;77.20;2227.20;;;;;;5097393;28;20031;-70
2021/04/18 00:25:38;;;;;;;34.40;18.05;;;77.20;2227.20;;;;;;5097510;28;20055;-69
2021/04/18 00:28:04;;;;;;;34.42;17.98;;;77.10;2227.20;;;;;;5097017;28;20107;-70
2021/04/18 00:30:30;;;;;;;29.55;15.85;;;77.10;2227.20;;;;;;5096903;28;20055;-70
2021/04/18 00:32:56;;;;;;;28.55;15.68;;;77.10;2227.20;;;;;;5097641;28;20032;-69
2021/04/18 00:35:22;;;;;;;28.92;16.50;;;77.20;2227.20;;;;;;5097460;28;20081;-70
2021/04/18 00:37:48;;;;;;;26.80;15.32;;;77.20;2227.20;;;;;;5097087;28;20027;-71
2021/04/18 00:40:17;;;;;;;21.83;13.57;;;77.20;2227.20;;;;;;5097536;28;20056;-71
2021/04/18 00:42:43;;;;;;;25.65;14.75;;;77.20;2227.20;;;;;;5097468;28;20039;-70
2021/04/18 00:45:11;;;;;;;31.27;16.45;;;77.20;2227.20;;;;;;5097523;28;20024;-71
2021/04/18 00:47:42;;;;;;;27.50;15.05;;;77.20;2227.20;;;;;;5097456;28;20032;-70
2021/04/18 00:50:13;;;;;;;32.15;16.65;;;77.30;2227.20;;;;;;5096669;28;20425;-71
2021/04/18 00:52:40;;;;;;;28.13;15.25;;;77.30;2227.20;;;;;;5097284;28;20028;-70
2021/04/18 00:55:07;;;;;;;28.95;15.55;;;77.30;2227.20;;;;;;5097354;28;20024;-73
2021/04/18 00:57:33;;;;;;;28.27;16.38;;;77.30;2227.20;;;;;;5097040;28;20398;-70
2021/04/18 01:00:00;;;;;;;29.48;16.00;;;77.40;2227.20;;;;;;5096961;28;20031;-71
2021/04/18 01:02:27;;;;;;;29.73;15.38;;;77.40;2227.20;;;;;;5096484;28;20609;-70
2021/04/18 01:04:53;;;;;;;24.05;13.60;;;77.40;2227.20;;;;;;5096608;28;20085;-71
2021/04/18 01:07:19;;;;;;;27.75;13.43;;;77.40;2227.20;;;;;;5097199;28;20036;-72
2021/04/18 01:09:45;;;;;;;21.80;12.18;;;77.40;2227.20;;;;;;5096767;28;20031;-69
2021/04/18 01:12:11;;;;;;;20.52;11.43;;;77.40;2227.20;;;;;;5096583;28;20114;-70
2021/04/18 01:14:37;;;;;;;25.55;12.70;;;77.50;2227.20;;;;;;5096297;28;20032;-71
2021/04/18 01:17:03;;;;;;;20.77;12.30;;;77.50;2227.20;;;;;;5078470;28;20032;-71
2021/04/18 01:19:29;;;;;;;24.73;12.45;;;77.60;2227.20;;;;;;5096314;28;20028;-70
2021/04/18 01:21:54;;;;;;;30.38;18.05;;;77.60;2227.20;;;;;;5096509;28;20306;-70
2021/04/18 01:24:20;;;;;;;19.65;11.13;;;77.60;2227.20;;;;;;5096745;28;20046;-71
2021/04/18 01:26:46;;;;;;;21.98;11.27;;;77.60;2227.20;;;;;;5096281;28;20036;-70
2021/04/18 01:29:12;;;;;;;17.05;10.05;;;77.60;2227.20;;;;;;5096278;28;20433;-70
2021/04/18 01:31:38;;;;;;;18.52;10.55;;;77.60;2227.20;;;;;;5096146;28;20127;-71
2021/04/18 01:34:04;;;;;;;19.42;10.80;;;77.60;2227.20;;;;;;5096633;28;20110;-70
2021/04/18 01:36:30;;;;;;;18.38;10.80;;;77.60;2227.20;;;;;;5096564;28;20028;-71
2021/04/18 01:38:56;;;;;;;19.05;10.73;;;77.60;2227.20;;;;;;5095865;28;20480;-69
2021/04/18 01:41:22;;;;;;;16.80;9.98;;;77.60;2227.20;;;;;;5095860;28;20070;-70
2021/04/18 01:43:48;;;;;;;16.60;10.25;;;77.60;2227.20;;;;;;5096144;28;20048;-71
2021/04/18 01:46:14;;;;;;;19.65;11.20;;;77.60;2227.20;;;;;;5095728;28;20166;-70
2021/04/18 01:48:40;;;;;;;20.75;12.02;;;77.60;2227.20;;;;;;5096056;28;20054;-70
2021/04/18 01:51:08;;;;;;;19.50;11.95;;;77.60;2227.20;;;;;;5096307;28;20040;-70
2021/04/18 01:53:35;;;;;;;19.67;11.27;;;77.60;2227.20;;;;;;5096103;28;20048;-71
2021/04/18 01:56:02;;;;;;;19.33;10.73;;;77.60;2227.20;;;;;;5096110;28;20642;-70
2021/04/18 01:58:28;;;;;;;19.58;11.68;;;77.50;2227.20;;;;;;5095643;28;20024;-71
2021/04/18 02:00:53;;;;;;;22.23;12.80;;;77.50;2227.20;;;;;;5095565;28;20032;-71
2021/04/18 02:03:19;;;;;;;22.60;13.32;;;77.50;2227.20;;;;;;5095859;28;20317;-72
2021/04/18 02:05:45;;;;;;;24.35;13.52;;;77.50;2227.20;;;;;;5095390;28;20659;-70
2021/04/18 02:08:11;;;;;;;32.35;16.00;;;77.50;2227.20;;;;;;5094877;28;20020;-70
2021/04/18 02:10:37;;;;;;;30.83;15.38;;;77.50;2227.20;;;;;;5095248;28;20060;-71
2021/04/18 02:13:03;;;;;;;27.27;13.85;;;77.50;2227.20;;;;;;5095597;28;20425;-70
2021/04/18 02:15:29;;;;;;;20.83;12.57;;;77.50;2227.20;;;;;;5095177;28;20100;-70
2021/04/18 02:17:55;;;;;;;21.98;13.20;;;77.40;2227.20;;;;;;5095641;28;20028;-70
2021/04/18 02:20:21;;;;;;;22.30;12.10;;;77.40;2227.20;;;;;;5095875;28;20036;-70
2021/04/18 02:22:47;;;;;;;19.55;11.45;;;77.30;2227.20;;;;;;5095480;28;20032;-71
2021/04/18 02:25:13;;;;;;;23.48;12.75;;;77.30;2227.20;;;;;;5095656;28;20418;-70
2021/04/18 02:27:40;;;;;;;26.77;14.10;;;77.30;2227.20;;;;;;5094687;28;20047;-71
2021/04/18 02:30:07;;;;;;;23.35;13.57;;;77.10;2227.20;;;;;;5095557;28;20035;-70
2021/04/18 02:32:33;;;;;;;20.33;11.98;;;77.10;2227.20;;;;;;5095494;28;20181;-70
2021/04/18 02:35:00;;;;;;;20.85;12.13;;;77.00;2227.20;;;;;;5094998;28;20525;-70
2021/04/18 02:37:26;;;;;;;20.25;12.32;;;77.00;2227.20;;;;;;5095012;28;20391;-70
2021/04/18 02:39:52;;;;;;;20.05;12.30;;;77.00;2227.20;;;;;;5094377;28;20064;-70
2021/04/18 02:42:18;;;;;;;25.35;13.27;;;77.00;2227.20;;;;;;5107687;28;20399;-71
2021/04/18 02:44:44;;;;;;;22.75;12.85;;;77.00;2227.20;;;;;;5117538;28;20106;-70
2021/04/18 02:47:10;;;;;;;20.17;11.65;;;77.00;2227.20;;;;;;5117531;28;20055;-71
2021/04/18 02:49:36;;;;;;;21.63;13.23;;;77.00;2227.20;;;;;;5117132;28;20427;-71
2021/04/18 02:52:01;;;;;;;24.38;14.73;;;77.00;2227.20;;;;;;5117427;28;20027;-70
2021/04/18 02:54:27;;;;;;;22.10;13.45;;;77.00;2227.20;;;;;;5117613;28;20020;-72
2021/04/18 02:56:53;;;;;;;25.83;14.30;;;76.90;2227.20;;;;;;5117397;28;20030;-70
2021/04/18 02:59:19;;;;;;;24.23;13.85;;;76.90;2227.20;;;;;;5117686;28;20106;-70
2021/04/18 03:01:45;;;;;;;23.77;13.98;;;76.90;2227.20;;;;;;5117351;28;20336;-70
2021/04/18 03:04:10;;;;;;;22.58;13.40;;;76.90;2227.20;;;;;;5117148;28;20035;-70
2021/04/18 03:06:36;;;;;;;20.45;12.40;;;76.90;2227.20;;;;;;5117608;28;20027;-70
2021/04/18 03:09:03;;;;;;;20.27;13.07;;;76.90;2227.20;;;;;;5117842;28;20110;-70
2021/04/18 03:11:29;;;;;;;19.33;11.48;;;76.80;2227.20;;;;;;5117226;28;20031;-69
2021/04/18 03:13:55;;;;;;;24.15;13.65;;;76.80;2227.20;;;;;;5117785;28;20031;-70
2021/04/18 03:16:21;;;;;;;22.38;11.10;;;76.80;2227.20;;;;;;5117808;28;20027;-72
2021/04/18 03:18:47;;;;;;;24.95;12.77;;;76.80;2227.20;;;;;;5117230;28;20367;-69
2021/04/18 03:21:13;;;;;;;21.55;12.18;;;76.80;2227.20;;;;;;5117163;28;20535;-69
2021/04/18 03:23:39;;;;;;;21.73;12.55;;;76.80;2227.20;;;;;;5117161;28;20106;-72
2021/04/18 03:26:05;;;;;;;15.38;9.70;;;76.80;2227.20;;;;;;5117733;28;20024;-70
2021/04/18 03:28:31;;;;;;;16.77;9.93;;;52.10;2227.20;;;;;;5117677;28;20110;-69
2021/04/18 03:30:57;;;;;;;17.83;10.60;;;52.10;2227.20;;;;;;5116844;28;20046;-70
2021/04/18 03:33:24;;;;;;;15.57;9.57;;;52.10;2227.20;;;;;;5117646;28;20312;-70
2021/04/18 03:35:50;;;;;;;16.08;10.10;;;52.10;2227.20;;;;;;5117022;28;20054;-70
2021/04/18 03:38:16;;;;;;;13.90;8.85;;;52.00;2227.20;;;;;;5117960;28;20073;-72
2021/04/18 03:40:42;;;;;;;15.18;9.98;;;52.00;2227.20;;;;;;5121731;28;20074;-72
2021/04/18 03:43:08;;;;;;;13.02;8.60;;;52.00;2227.20;;;;;;5121185;28;20230;-70
2021/04/18 03:45:34;;;;;;;14.00;9.23;;;52.00;2227.20;;;;;;5121117;28;20135;-70
2021/04/18 03:48:00;;;;;;;14.02;9.45;;;52.00;2227.20;;;;;;5121290;28;20385;-71
2021/04/18 03:50:26;;;;;;;15.32;9.57;;;52.00;2227.20;;;;;;5120629;28;20110;-72
2021/04/18 03:52:55;;;;;;;16.40;9.95;;;52.00;2227.20;;;;;;5120741;28;20028;-70
2021/04/18 03:55:22;;;;;;;14.13;9.10;;;52.00;2227.20;;;;;;5121229;28;20030;-70
2021/04/18 03:57:49;;;;;;;15.80;9.60;;;52.00;2227.20;;;;;;5121165;28;20024;-70
2021/04/18 04:00:15;;;;;;;13.80;9.15;;;52.00;2227.20;;;;;;5120565;28;20363;-71
2021/04/18 04:02:41;;;;;;;17.00;10.68;;;52.00;2227.20;;;;;;5121039;28;20030;-70
2021/04/18 04:05:07;;;;;;;16.38;10.70;;;52.00;2227.20;;;;;;5120742;28;20032;-69
2021/04/18 04:07:33;;;;;;;17.70;10.93;;;52.00;2227.20;;;;;;5119584;28;20027;-70
2021/04/18 04:09:59;;;;;;;17.17;10.43;;;52.00;2227.20;;;;;;5120569;28;20439;-70
2021/04/18 04:12:27;;;;;;;16.00;10.18;;;52.00;2227.20;;;;;;5120543;28;20023;-71
2021/04/18 04:14:53;;;;;;;14.55;10.20;;;52.00;2227.20;;;;;;5120838;28;20023;-69
2021/04/18 04:17:19;;;;;;;14.90;9.60;;;52.00;2227.20;;;;;;5120519;28;20020;-71
2021/04/18 04:19:44;;;;;;;12.23;8.30;;;52.00;2227.20;;;;;;5120162;28;20115;-70
2021/04/18 04:22:10;;;;;;;13.88;8.77;;;52.00;2227.20;;;;;;5102051;28;20064;-70
2021/04/18 04:24:36;;;;;;;15.05;9.32;;;52.00;2227.20;;;;;;5120357;28;20063;-71
2021/04/18 04:27:02;;;;;;;17.33;10.57;;;52.00;2227.20;;;;;;5120340;28;20410;-70
2021/04/18 04:29:28;;;;;;;17.35;10.45;;;52.00;2227.20;;;;;;5120216;28;20106;-70
2021/04/18 04:31:54;;;;;;;16.17;10.35;;;52.00;2227.20;;;;;;5120543;28;20161;-70
2021/04/18 04:34:20;;;;;;;17.33;11.27;;;52.00;2227.20;;;;;;5120194;28;20401;-70
2021/04/18 04:36:46;;;;;;;18.58;11.80;;;52.00;2227.20;;;;;;5120182;28;20060;-69
2021/04/18 04:39:11;;;;;;;19.63;11.63;;;52.00;2227.20;;;;;;5120297;28;20056;-71
2021/04/18 04:41:37;;;;;;;15.40;9.90;;;52.10;2227.20;;;;;;5120019;28;20020;-70
2021/04/18 04:44:03;;;;;;;12.45;8.48;;;52.10;2227.20;;;;;;5119989;28;20431;-70
2021/04/18 04:46:29;;;;;;;14.32;9.38;;;52.10;2227.20;;;;;;5120265;28;20040;-69
2021/04/18 04:48:55;;;;;;;14.38;9.80;;;76.80;2227.20;;;;;;5119145;28;20027;-70
2021/04/18 04:51:20;;;;;;;19.00;11.60;;;76.80;2227.20;;;;;;5119761;28;20024;-70
2021/04/18 04:53:46;;;;;;;16.88;10.38;;;76.90;2227.20;;;;;;5119816;28;20096;-71
2021/04/18 04:56:12;;;;;;;19.85;10.95;;;76.90;2227.20;;;;;;5119507;28;20028;-71
2021/04/18 04:58:38;;;;;;;20.15;12.60;;;76.90;2227.20;;;;;;5119973;28;20085;-71
2021/04/18 05:01:04;;;;;;;19.50;12.35;;;77.00;2227.20;;;;;;5119966;28;20023;-70
2021/04/18 05:03:29;;;;;;;22.17;13.27;;;77.00;2227.20;;;;;;5119338;28;20027;-71
2021/04/18 05:05:55;;;;;;;20.85;11.95;;;77.00;2227.20;;;;;;5119874;28;20019;-71
2021/04/18 05:08:21;;;;;;;16.45;10.25;;;77.00;2227.20;;;;;;5119222;28;20028;-71
2021/04/18 05:10:47;;;;;;;17.40;10.38;;;77.00;2227.20;;;;;;5119115;28;20057;-71
2021/04/18 05:13:13;;;;;;;21.42;13.30;;;76.90;2227.20;;;;;;5119435;28;20078;-69
2021/04/18 05:15:39;;;;;;;15.55;10.13;;;76.90;2227.20;;;;;;5119341;28;20024;-70
2021/04/18 05:18:05;;;;;;;18.90;11.65;;;77.00;2227.20;;;;;;5118771;28;20375;-71
2021/04/18 05:20:32;;;;;;;21.55;13.70;;;77.00;2227.20;;;;;;5119544;28;20028;-70
2021/04/18 05:22:58;;;;;;;17.75;10.95;;;77.00;2227.20;;;;;;5118740;28;20053;-70
2021/04/18 05:25:24;;;;;;;16.85;10.38;;;77.10;2227.20;;;;;;5119458;28;20031;-71
2021/04/18 05:27:49;;;;;;;13.88;8.55;;;77.10;2227.20;;;;;;5119131;28;20024;-71
2021/04/18 05:30:16;;;;;;;15.38;10.05;;;77.10;2227.20;;;;;;5118995;28;20065;-70
2021/04/18 05:32:41;;;;;;;13.80;8.88;;;77.20;2227.20;;;;;;5100769;28;20028;-70
2021/04/18 05:35:08;;;;;;;16.65;9.88;;;77.20;2227.20;;;;;;5118930;28;20092;-70
2021/04/18 05:37:34;;;;;;;13.57;8.68;;;77.20;2227.20;;;;;;5118970;28;20023;-71
2021/04/18 05:40:00;;;;;;;15.02;9.63;;;77.20;2227.20;;;;;;5118941;28;20106;-70
2021/04/18 05:42:26;;;;;;;16.67;10.80;;;77.20;2227.20;;;;;;5118794;28;20063;-71
2021/04/18 05:44:52;;;;;;;22.00;13.52;;;77.20;2227.20;;;;;;5118554;28;20050;-71
2021/04/18 05:47:18;;;;;;;11.55;7.97;;;77.30;2227.20;;;;;;5098271;28;20024;-71
2021/04/18 05:49:44;;;;;;;13.57;8.35;;;77.30;2227.20;;;;;;5096265;28;20027;-71
2021/04/18 05:52:09;;;;;;;14.40;9.05;;;77.30;2227.20;;;;;;5095741;28;20028;-70
2021/04/18 05:54:35;;;;;;;11.35;7.43;;;77.30;2227.20;;;;;;5095930;28;20119;-70
2021/04/18 05:57:01;;;;;;;13.70;8.75;;;77.30;2227.20;;;;;;5096130;28;20338;-71
2021/04/18 05:59:27;;;;;;;12.35;8.05;;;77.40;2227.20;;;;;;5095400;28;20036;-71
2021/04/18 06:01:53;;;;;;;10.65;7.18;;;77.40;2227.20;;;;;;5095265;28;20035;-72
2021/04/18 06:04:19;;;;;;;11.38;7.45;;;77.40;2227.20;;;;;;5096034;28;20389;-70
2021/04/18 06:06:45;;;;;;;9.93;6.57;;;77.40;2227.20;;;;;;5095767;28;20317;-70
2021/04/18 06:09:10;;;;;;;8.85;6.45;;;77.40;2227.20;;;;;;5095972;28;20024;-71
2021/04/18 06:11:36;;;;;;;9.18;6.20;;;77.40;2227.20;;;;;;5095751;28;20027;-70
2021/04/18 06:14:02;;;;;;;8.45;5.40;;;77.60;2227.20;;;;;;5095310;28;20437;-70
2021/04/18 06:16:28;;;;;;;9.50;6.28;;;77.60;2227.20;;;;;;5095770;28;20039;-72
2021/04/18 06:18:54;;;;;;;10.23;7.10;;;102.40;2227.20;;;;;;5095439;28;20035;-73
2021/04/18 06:21:20;;;;;;;8.98;6.25;;;102.40;2227.20;;;;;;5104216;28;20024;-72
2021/04/18 06:23:46;;;;;;;8.65;5.65;;;102.40;2227.20;;;;;;5104659;28;20028;-72
2021/04/18 06:26:12;;;;;;;8.10;5.50;;;102.40;2227.20;;;;;;5105659;28;20358;-71
2021/04/18 06:28:38;;;;;;;11.10;7.57;;;102.40;2227.20;;;;;;5104735;28;20084;-71
2021/04/18 06:31:05;;;;;;;8.45;5.60;;;102.40;2227.20;;;;;;5104423;28;20047;-72
2021/04/18 06:33:30;;;;;;;44.40;21.33;;;77.70;2227.20;;;;;;5105477;28;20676;-71
2021/04/18 06:35:56;;;;;;;8.68;6.13;;;77.70;2227.20;;;;;;5104411;28;20110;-71
2021/04/18 06:38:22;;;;;;;34.95;22.15;;;77.70;2227.20;;;;;;5105023;28;20031;-72
2021/04/18 06:40:54;;;;;;;22.63;14.68;;;77.70;2227.20;;;;;;5105666;28;20135;-74
2021/04/18 06:43:22;;;;;;;7.80;5.95;;;102.40;2227.20;;;;;;5104437;28;20020;-72
2021/04/18 06:45:52;;;;;;;6.90;5.40;;;102.40;2227.20;;;;;;5103624;28;20023;-72
2021/04/18 06:48:20;;;;;;;9.80;7.20;;;102.40;2227.20;;;;;;5104167;28;20032;-72
2021/04/18 06:50:47;;;;;;;7.40;5.60;;;102.50;2227.20;;;;;;5103658;28;20034;-72
2021/04/18 06:53:13;;;;;;;7.47;5.50;;;102.40;2227.20;;;;;;5105403;28;20409;-71
2021/04/18 06:55:39;;;;;;;6.45;4.82;;;102.40;2227.20;;;;;;5099922;28;20111;-70
2021/04/18 06:58:05;;;;;;;8.52;6.50;;;102.40;2227.20;;;;;;5095327;28;20097;-71
2021/04/18 07:00:32;;;;;;;18.45;12.30;;;102.50;2227.20;;;;;;5094893;28;20405;-71
2021/04/18 07:03:15;;;;;;;9.70;7.13;;;102.50;2227.20;;;;;;5095101;28;20469;-70
2021/04/18 07:05:46;;;;;;;19.77;13.15;;;102.40;2227.20;;;;;;5102864;28;20106;-71
2021/04/18 07:08:25;;;;;;;12.38;9.18;;;77.70;2227.20;;;;;;5105006;28;20036;-71
2021/04/18 07:11:10;;;;;;;13.70;9.73;;;102.40;2227.20;;;;;;5104592;28;20447;-71
2021/04/18 07:13:36;;;;;;;11.25;7.97;;;102.50;2227.20;;;;;;5109813;28;20035;-72
2021/04/18 07:16:02;;;;;;;16.15;10.88;;;102.50;2227.20;;;;;;5108494;28;20123;-71
2021/04/18 07:18:41;;;;;;;17.27;11.05;;;102.50;2227.20;;;;;;5104857;28;20444;-72
2021/04/18 07:21:07;;;;;;;17.90;11.93;;;102.60;2227.20;;;;;;5109693;28;20036;-73
2021/04/18 07:23:34;;;;;;;10.77;7.47;;;102.60;2227.20;;;;;;5107576;28;20442;-71
2021/04/18 07:26:21;;;;;;;63.10;21.13;;;102.60;2227.20;;;;;;5107731;28;20027;-72
2021/04/18 07:28:48;;;;;;;10.38;6.78;;;102.80;2227.20;;;;;;5109170;28;20356;-72
2021/04/18 07:31:28;;;;;;;7.43;5.35;;;102.90;2227.20;;;;;;5116884;28;20036;-72
2021/04/18 07:34:02;;;;;;;8.00;6.32;;;103.10;2227.20;;;;;;5099303;28;20073;-73
2021/04/18 07:36:29;;;;;;;7.65;5.10;;;103.20;2227.20;;;;;;5108706;28;20035;-73
2021/04/18 07:38:55;;;;;;;7.72;5.68;;;103.10;2227.20;;;;;;5119060;28;20075;-71
2021/04/18 07:41:23;;;;;;;8.02;6.20;;;103.00;2227.20;;;;;;5113637;28;20114;-71
2021/04/18 07:43:50;;;;;;;7.93;5.88;;;103.00;2227.20;;;;;;5107794;28;20383;-73
2021/04/18 07:46:17;;;;;;;7.68;5.72;;;103.10;2227.20;;;;;;5106818;28;20036;-72
2021/04/18 07:48:44;;;;;;;8.35;6.70;;;103.20;2227.20;;;;;;5106634;28;20027;-73
2021/04/18 07:51:10;;;;;;;8.40;5.88;;;103.10;2227.20;;;;;;5105751;28;20039;-72
2021/04/18 07:53:37;;;;;;;8.80;6.55;;;103.10;2227.20;;;;;;5098535;28;20106;-73
2021/04/18 07:56:11;;;;;;;17.75;12.02;;;103.10;2227.20;;;;;;5095084;28;20114;-71
2021/04/18 07:58:38;;;;;;;7.68;5.53;;;103.10;2227.20;;;;;;5095407;28;20028;-72
2021/04/18 08:01:05;;;;;;;6.75;5.35;;;103.10;2227.20;;;;;;5096167;28;20070;-71
2021/04/18 08:03:31;;;;;;;18.55;14.20;;;103.10;2227.20;;;;;;5095818;28;20730;-72
2021/04/18 08:05:58;;;;;;;15.88;11.20;;;103.20;2227.20;;;;;;5095798;28;20111;-71
2021/04/18 08:08:41;;;;;;;8.40;6.35;;;103.30;2227.20;;;;;;5096273;28;20584;-72
2021/04/18 08:11:10;;;;;;;7.70;5.57;;;103.20;2227.20;;;;;;5111866;28;20032;-70
2021/04/18 08:13:43;;;;;;;6.85;4.97;;;103.20;2227.20;;;;;;5111514;28;20043;-71
2021/04/18 08:16:09;;;;;;;7.82;6.50;;;103.20;2227.20;;;;;;5106335;28;20078;-70
2021/04/18 08:18:47;;;;;;;8.60;6.22;;;103.10;2227.20;;;;;;5107232;28;20018;-72
2021/04/18 08:21:30;;;;;;;8.88;6.90;;;103.20;2227.20;;;;;;5105806;28;20433;-70
2021/04/18 08:23:56;;;;;;;8.57;6.57;;;103.20;2227.20;;;;;;5104168;28;20035;-71
2021/04/18 08:26:25;;;;;;;8.60;6.38;;;103.20;2227.20;;;;;;5103433;28;20345;-71
2021/04/18 08:28:54;;;;;;;8.13;5.93;;;103.00;2227.20;;;;;;5107324;28;20054;-71
2021/04/18 08:31:24;;;;;;;8.60;6.43;;;103.00;2227.20;;;;;;5111799;28;20443;-73
2021/04/18 08:33:53;;;;;;;9.18;7.32;;;103.10;2227.20;;;;;;5105862;28;20429;-70
2021/04/18 08:36:19;;;;;;;;;;;103.10;2227.20;;;;;;5106709;28;20067;-73
2021/04/18 08:39:09;;;;;;;8.15;6.35;;;103.20;2227.20;;;;;;5106330;28;20051;-71
2021/04/18 08:41:45;;;;;;;9.32;7.05;;;103.30;2227.20;;;;;;5055849;28;20083;-71
2021/04/18 08:44:21;;;;;;;7.15;5.75;;;103.30;2227.20;;;;;;5105443;28;20020;-71
2021/04/18 08:47:11;;;;;;;8.38;6.18;;;103.30;2227.20;;;;;;5104587;28;20689;-71
2021/04/18 08:49:38;;;;;;;7.35;5.97;;;128.00;2252.80;;;;;;5095398;28;20043;-71
2021/04/18 08:52:13;;;;;;;9.57;7.30;;;128.10;2252.80;;;;;;5105227;28;20032;-70
2021/04/18 08:54:44;;;;;;;8.82;7.10;;;128.10;2252.80;;;;;;5105597;28;20345;-71
2021/04/18 08:57:31;;;;;;;9.82;7.63;;;128.00;2252.80;;;;;;5097692;28;20119;-71
2021/04/18 09:00:04;;;;;;;10.02;7.70;;;128.10;2252.80;;;;;;5096702;28;20042;-72
2021/04/18 09:02:36;;;;;;;10.80;7.43;;;128.20;2252.80;;;;;;5114341;27;20026;-72
2021/04/18 09:05:27;;;;;;;10.90;8.32;;;128.40;2252.80;;;;;;5115932;27;20684;-70
2021/04/18 09:08:17;;;;;;;14.07;10.52;;;128.30;2252.80;;;;;;5105761;28;20155;-70
2021/04/18 09:11:05;;;;;;;10.80;8.50;;;128.40;2252.80;;;;;;5104076;27;20055;-70
2021/04/18 09:13:32;;;;;;;9.18;7.35;;;128.50;2252.80;;;;;;5133716;27;20027;-71
2021/04/18 09:15:58;;;;;;;11.00;7.85;;;128.60;2252.80;;;;;;5136897;27;20046;-71
2021/04/18 09:18:24;;;;;;;13.13;9.52;;;128.50;2252.80;;;;;;5136835;27;20023;-71
2021/04/18 09:21:13;;;;;;;11.55;8.52;;;128.50;2252.80;;;;;;5113524;27;20032;-71
2021/04/18 09:24:03;;;;;;;19.27;14.48;;;128.50;2252.80;;;;;;5104611;28;20024;-71
2021/04/18 09:30:17;;;;;;;16.85;12.45;;;128.60;2252.80;;;;;;5104505;28;20039;-71
2021/04/18 09:32:51;;;;;;;21.23;14.82;;;128.60;2252.80;;;;;;5103144;27;20077;-72
2021/04/18 09:35:28;;;;;;;13.70;10.00;;;128.70;2252.80;;;;;;5105660;28;20067;-72
2021/04/18 09:37:54;;;;;;;13.65;10.57;;;128.80;2252.80;;;;;;5100248;28;20058;-72
2021/04/18 09:40:23;;;;;;;13.23;9.20;;;128.90;2252.80;;;;;;5098955;27;20433;-71
2021/04/18 09:42:51;;;;;;;53.75;33.53;;;153.60;2252.80;;;;;;5115058;28;20023;-71
2021/04/18 09:45:20;;;;;;;13.23;9.93;;;153.60;2252.80;;;;;;5115293;28;20038;-71
2021/04/18 09:47:46;;;;;;;;;;;153.60;2252.80;;;;;;5118197;28;20417;-73
2021/04/18 09:50:24;;;;;;;18.00;14.57;;;128.90;2252.80;;;;;;5117730;28;19918;-72
2021/04/18 09:52:51;;;;;;;24.38;17.90;;;153.60;2252.80;;;;;;5118368;28;20333;-72
2021/04/18 09:55:23;;;;;;;13.93;9.93;;;128.90;2252.80;;;;;;5112709;28;20032;-73
2021/04/18 09:57:50;;;;;;;23.98;16.85;;;153.60;2252.80;;;;;;5102937;28;20626;-73
2021/04/18 10:00:32;;;;;;;15.63;10.50;;;153.60;2252.80;;;;;;5105695;28;20019;-72
2021/04/18 10:02:58;;;;;;;13.40;9.25;;;153.60;2252.80;;;;;;5103847;27;20494;-73
2021/04/18 10:05:24;;;;;;;10.50;8.20;;;153.60;2252.80;;;;;;5112837;28;20057;-73
2021/04/18 10:07:51;;;;;;;11.65;8.82;;;153.60;2252.80;;;;;;5115606;28;20451;-73
2021/04/18 10:10:31;;;;;;;11.35;8.50;;;128.90;2252.80;;;;;;5115340;28;20077;-73
2021/04/18 10:13:00;;;;;;;10.35;7.55;;;153.60;2252.80;;;;;;5115248;28;20039;-71
2021/04/18 10:15:30;;;;;;;11.70;8.65;;;153.60;2252.80;;;;;;5115391;28;20431;-71
2021/04/18 10:17:56;;;;;;;10.95;7.88;;;153.60;2252.80;;;;;;5115592;28;20421;-71
2021/04/18 10:20:27;;;;;;;11.13;8.45;;;153.60;2252.80;;;;;;5115373;28;20114;-71
2021/04/18 10:23:04;;;;;;;10.82;8.10;;;153.70;2252.80;;;;;;5116174;28;20130;-71
2021/04/18 10:25:30;;;;;;;11.48;8.10;;;153.60;2252.80;;;;;;5115489;28;20034;-70
2021/04/18 10:27:56;;;;;;;10.82;8.20;;;153.60;2252.80;;;;;;5115056;28;20028;-71
2021/04/18 10:30:22;;;;;;;10.93;7.85;;;153.70;2252.80;;;;;;5114991;28;20340;-71
2021/04/18 10:32:49;;;;;;;9.18;7.18;;;153.80;2252.80;;;;;;5115217;28;20043;-70
2021/04/18 10:35:15;;;;;;;10.57;7.97;;;153.80;2252.80;;;;;;5115243;28;20352;-73
2021/04/18 10:37:41;;;;;;;12.80;8.43;;;153.90;2252.80;;;;;;5114913;28;20027;-74
2021/04/18 10:40:08;;;;;;;12.05;9.18;;;153.90;2252.80;;;;;;5115690;28;20062;-72
2021/04/18 10:42:33;;;;;;;9.15;7.10;;;153.90;2252.80;;;;;;5115620;28;20051;-74
2021/04/18 10:44:59;;;;;;;7.60;4.22;;;153.90;2252.80;;;;;;5114781;28;20051;-73
2021/04/18 10:47:25;;;;;;;7.00;5.00;;;153.90;2252.80;;;;;;5114560;28;20424;-72
2021/04/18 10:49:51;;;;;;;6.20;4.25;;;153.90;2252.80;;;;;;5114661;28;20031;-72
2021/04/18 10:52:17;;;;;;;5.90;3.85;;;153.90;2252.80;;;;;;5105229;28;20035;-70
2021/04/18 10:54:43;;;;;;;7.47;4.30;;;153.70;2252.80;;;;;;5102800;28;20349;-70
2021/04/18 10:57:09;;;;;;;9.38;5.53;;;153.60;2252.80;;;;;;5103174;28;20024;-70
2021/04/18 10:59:35;;;;;;;7.47;5.25;;;153.60;2252.80;;;;;;5113350;28;20351;-73
2021/04/18 11:02:01;;;;;;;23.90;8.85;;;153.60;2252.80;;;;;;5114808;28;20110;-73
2021/04/18 11:04:29;;;;;;;11.35;7.30;;;153.60;2252.80;;;;;;5101590;28;20110;-73
2021/04/18 11:06:55;;;;;;;10.32;6.35;;;153.70;2252.80;;;;;;5109937;28;20016;-73
2021/04/18 11:09:22;;;;;;;9.75;6.72;;;153.70;2252.80;;;;;;5127389;28;20038;-72
2021/04/18 11:11:48;;;;;;;8.43;5.95;;;153.80;2252.80;;;;;;5119605;28;20042;-73
2021/04/18 11:14:14;;;;;;;12.23;5.55;;;153.90;2252.80;;;;;;5114607;28;20028;-73
2021/04/18 11:16:39;;;;;;;8.85;5.78;;;153.90;2252.80;;;;;;5111800;28;20051;-73
2021/04/18 11:19:05;;;;;;;15.18;7.15;;;154.10;2252.80;;;;;;5113086;28;20115;-71
2021/04/18 11:21:31;;;;;;;24.85;12.38;;;154.20;2252.80;;;;;;5104334;28;20028;-72
2021/04/18 11:23:57;;;;;;;15.45;8.18;;;154.20;2252.80;;;;;;5103506;28;20321;-71
2021/04/18 11:26:25;;;;;;;59.45;21.83;;;154.30;2252.80;;;;;;5111431;28;20029;-72
2021/04/18 11:28:51;;;;;;;11.23;7.00;;;154.20;2252.80;;;;;;5106369;28;20016;-72
2021/04/18 11:31:17;;;;;;;11.52;7.57;;;154.40;2252.80;;;;;;5107974;28;20031;-71
2021/04/18 11:33:44;;;;;;;37.30;18.75;;;154.50;2252.80;;;;;;5107258;28;20024;-73
2021/04/18 11:36:10;;;;;;;20.80;11.05;;;154.50;2252.80;;;;;;5105322;28;20421;-71
2021/04/18 11:38:36;;;;;;;15.93;9.23;;;179.20;2252.80;;;;;;5118848;28;20034;-72
2021/04/18 11:41:02;;;;;;;19.45;11.98;;;179.20;2252.80;;;;;;5134039;28;20348;-72
2021/04/18 11:43:28;;;;;;;12.00;8.15;;;179.40;2252.80;;;;;;5135325;28;20037;-72
2021/04/18 11:45:56;;;;;;;10.00;7.22;;;179.60;2252.80;;;;;;5106486;28;20028;-72
2021/04/18 11:48:22;;;;;;;32.15;14.95;;;179.70;2252.80;;;;;;5127774;28;20063;-72
2021/04/18 11:50:49;;;;;;;23.88;13.57;;;179.80;2252.80;;;;;;5135508;28;20121;-72
2021/04/18 11:53:14;;;;;;;9.95;8.10;;;179.90;2252.80;;;;;;5135021;28;20091;-73
2021/04/18 11:55:40;;;;;;;15.02;9.73;;;180.00;2252.80;;;;;;5115256;28;20032;-73
2021/04/18 11:58:07;;;;;;;10.73;7.47;;;204.90;2252.80;;;;;;5135361;27;20061;-72
2021/04/18 12:00:34;;;;;;;14.38;9.88;;;204.90;2252.80;;;;;;5137320;27;20069;-73
2021/04/18 12:03:00;;;;;;;11.77;8.75;;;205.00;2252.80;;;;;;5138748;27;20027;-72
2021/04/18 12:05:26;;;;;;;15.60;10.43;;;205.10;2252.80;;;;;;5138691;27;20027;-71
2021/04/18 12:07:52;;;;;;;15.68;10.82;;;205.10;2252.80;;;;;;5138595;27;20026;-72
2021/04/18 12:10:18;;;;;;;15.43;11.77;;;205.30;2252.80;;;;;;5137848;27;20035;-71
2021/04/18 12:12:44;;;;;;;12.38;8.45;;;205.40;2252.80;;;;;;5116311;28;20032;-71
2021/04/18 12:15:12;;;;;;;14.52;10.68;;;205.30;2252.80;;;;;;5120188;28;20027;-72
2021/04/18 12:17:38;;;;;;;16.58;10.55;;;205.30;2252.80;;;;;;5120421;28;20416;-71